sensor_id;sensor_type;location;lat;lon;timestamp;pressure;altitude;pressure_sealevel;temperature;humidity
6833;BME280;3454;42.654;23.378;2023-02-16T00:01:33;95741.69;;;2.46;93.79
6833;BME280;3454;42.654;23.378;2023-02-16T00:04:00;95708.94;;;2.28;95.46
6833;BME280;3454;42.654;23.378;2023-02-16T00:06:27;95705.25;;;2.38;95.72
6833;BME280;3454;42.654;23.378;2023-02-16T00:09:00;95718.91;;;2.52;95.50
6833;BME280;3454;42.654;23.378;2023-02-16T00:11:31;95709.81;;;2.50;95.22
6833;BME280;3454;42.654;23.378;2023-02-16T00:14:17;95715.47;;;2.55;95.88
6833;BME280;3454;42.654;23.378;2023-02-16T00:16:43;95733.94;;;2.52;95.00
6833;BME280;3454;42.654;23.378;2023-02-16T00:19:16;95726.72;;;2.45;94.64
6833;BME280;3454;42.654;23.378;2023-02-16T00:21:43;95747.59;;;2.69;93.15
6833;BME280;3454;42.654;23.378;2023-02-16T00:24:08;95759.44;;;2.65;92.55
6833;BME280;3454;42.654;23.378;2023-02-16T00:26:34;95758.06;;;2.56;93.36
6833;BME280;3454;42.654;23.378;2023-02-16T00:28:59;95737.41;;;2.50;93.45
6833;BME280;3454;42.654;23.378;2023-02-16T00:31:27;95737.50;;;2.47;93.66
6833;BME280;3454;42.654;23.378;2023-02-16T00:33:56;95720.16;;;2.41;93.79
6833;BME280;3454;42.654;23.378;2023-02-16T00:36:22;95724.19;;;2.45;94.47
6833;BME280;3454;42.654;23.378;2023-02-16T00:38:47;95738.13;;;2.53;93.83
6833;BME280;3454;42.654;23.378;2023-02-16T00:41:21;95724.88;;;2.50;93.91
6833;BME280;3454;42.654;23.378;2023-02-16T00:44:14;95700.53;;;2.29;94.22
6833;BME280;3454;42.654;23.378;2023-02-16T00:46:41;95739.63;;;2.58;94.04
6833;BME280;3454;42.654;23.378;2023-02-16T00:49:13;95765.19;;;2.69;92.46
6833;BME280;3454;42.654;23.378;2023-02-16T00:51:39;95768.50;;;2.69;91.51
6833;BME280;3454;42.654;23.378;2023-02-16T00:54:04;95750.88;;;2.47;92.39
6833;BME280;3454;42.654;23.378;2023-02-16T00:56:30;95690.09;;;2.18;94.90
6833;BME280;3454;42.654;23.378;2023-02-16T00:58:57;95700.38;;;2.33;95.80
6833;BME280;3454;42.654;23.378;2023-02-16T01:01:28;95715.31;;;2.36;94.95
6833;BME280;3454;42.654;23.378;2023-02-16T01:03:55;95714.72;;;2.30;94.68
6833;BME280;3454;42.654;23.378;2023-02-16T01:06:21;95719.75;;;2.30;93.21
6833;BME280;3454;42.654;23.378;2023-02-16T01:09:14;95719.00;;;2.26;93.73
6833;BME280;3454;42.654;23.378;2023-02-16T01:11:59;95718.38;;;2.21;93.35
6833;BME280;3454;42.654;23.378;2023-02-16T01:14:25;95713.72;;;2.11;93.79
6833;BME280;3454;42.654;23.378;2023-02-16T01:16:50;95685.81;;;1.97;95.00
6833;BME280;3454;42.654;23.378;2023-02-16T01:19:17;95691.38;;;2.05;95.22
6833;BME280;3454;42.654;23.378;2023-02-16T01:21:43;95668.00;;;2.04;95.24
6833;BME280;3454;42.654;23.378;2023-02-16T01:24:08;95673.50;;;2.14;95.43
6833;BME280;3454;42.654;23.378;2023-02-16T01:26:37;95680.38;;;2.09;95.33
6833;BME280;3454;42.654;23.378;2023-02-16T01:29:04;95679.50;;;2.10;94.95
6833;BME280;3454;42.654;23.378;2023-02-16T01:31:29;95667.63;;;2.15;94.85
6833;BME280;3454;42.654;23.378;2023-02-16T01:33:55;95671.25;;;2.06;95.27
6833;BME280;3454;42.654;23.378;2023-02-16T01:36:29;95692.06;;;2.10;94.67
6833;BME280;3454;42.654;23.378;2023-02-16T01:38:55;95660.75;;;1.97;95.06
6833;BME280;3454;42.654;23.378;2023-02-16T01:44:11;95722.97;;;2.33;93.18
6833;BME280;3454;42.654;23.378;2023-02-16T01:46:44;95699.56;;;2.10;93.48
6833;BME280;3454;42.654;23.378;2023-02-16T01:49:18;95648.03;;;1.78;95.63
6833;BME280;3454;42.654;23.378;2023-02-16T01:52:19;95641.19;;;1.83;96.03
6833;BME280;3454;42.654;23.378;2023-02-16T01:54:53;95627.22;;;1.76;96.58
6833;BME280;3454;42.654;23.378;2023-02-16T02:02:20;95625.22;;;1.86;96.71
6833;BME280;3454;42.654;23.378;2023-02-16T02:04:51;95605.59;;;1.74;95.70
6833;BME280;3454;42.654;23.378;2023-02-16T02:13:09;95642.00;;;1.84;96.19
6833;BME280;3454;42.654;23.378;2023-02-16T02:15:36;95650.31;;;1.84;96.08
6833;BME280;3454;42.654;23.378;2023-02-16T02:18:02;95627.94;;;1.80;97.13
6833;BME280;3454;42.654;23.378;2023-02-16T02:24:11;95633.16;;;1.97;97.46
6833;BME280;3454;42.654;23.378;2023-02-16T02:38:15;95663.69;;;1.85;94.78
6833;BME280;3454;42.654;23.378;2023-02-16T02:45:56;95650.59;;;1.53;95.21
6833;BME280;3454;42.654;23.378;2023-02-16T02:48:29;95612.81;;;1.35;97.11
6833;BME280;3454;42.654;23.378;2023-02-16T02:54:00;95608.97;;;1.49;97.69
6833;BME280;3454;42.654;23.378;2023-02-16T02:57:07;95624.66;;;1.54;96.27
6833;BME280;3454;42.654;23.378;2023-02-16T02:59:58;95628.88;;;1.52;96.03
6833;BME280;3454;42.654;23.378;2023-02-16T03:02:45;95637.78;;;1.61;96.40
6833;BME280;3454;42.654;23.378;2023-02-16T03:05:14;95634.31;;;1.65;96.34
6833;BME280;3454;42.654;23.378;2023-02-16T03:07:43;95629.44;;;1.60;96.93
6833;BME280;3454;42.654;23.378;2023-02-16T03:10:16;95616.38;;;1.52;97.11
6833;BME280;3454;42.654;23.378;2023-02-16T03:13:03;95610.72;;;1.47;97.78
6833;BME280;3454;42.654;23.378;2023-02-16T03:15:30;95620.53;;;1.53;97.40
6833;BME280;3454;42.654;23.378;2023-02-16T03:17:57;95624.78;;;1.51;97.58
6833;BME280;3454;42.654;23.378;2023-02-16T03:20:42;95602.03;;;1.33;98.61
6833;BME280;3454;42.654;23.378;2023-02-16T03:23:28;95589.22;;;1.40;99.13
6833;BME280;3454;42.654;23.378;2023-02-16T03:26:12;95616.63;;;1.45;97.35
6833;BME280;3454;42.654;23.378;2023-02-16T03:28:58;95624.78;;;1.50;97.50
6833;BME280;3454;42.654;23.378;2023-02-16T03:31:47;95623.81;;;1.54;97.22
6833;BME280;3454;42.654;23.378;2023-02-16T03:34:14;95616.56;;;1.46;97.39
6833;BME280;3454;42.654;23.378;2023-02-16T03:36:43;95632.28;;;1.51;96.17
6833;BME280;3454;42.654;23.378;2023-02-16T03:39:10;95660.84;;;1.70;95.09
6833;BME280;3454;42.654;23.378;2023-02-16T03:41:42;95658.88;;;1.55;95.27
6833;BME280;3454;42.654;23.378;2023-02-16T03:44:09;95634.44;;;1.37;96.32
6833;BME280;3454;42.654;23.378;2023-02-16T03:46:35;95627.88;;;1.33;96.66
6833;BME280;3454;42.654;23.378;2023-02-16T03:49:00;95588.81;;;1.03;96.70
6833;BME280;3454;42.654;23.378;2023-02-16T03:51:26;95623.25;;;1.21;96.67
6833;BME280;3454;42.654;23.378;2023-02-16T03:53:51;95630.63;;;1.26;96.70
6833;BME280;3454;42.654;23.378;2023-02-16T03:56:17;95607.53;;;1.18;97.83
6833;BME280;3454;42.654;23.378;2023-02-16T03:58:42;95624.03;;;1.23;97.13
6833;BME280;3454;42.654;23.378;2023-02-16T04:01:08;95615.72;;;1.23;97.03
6833;BME280;3454;42.654;23.378;2023-02-16T04:03:33;95601.69;;;1.17;97.63
6833;BME280;3454;42.654;23.378;2023-02-16T04:05:59;95607.59;;;1.16;97.89
6833;BME280;3454;42.654;23.378;2023-02-16T04:08:24;95605.22;;;1.12;97.80
6833;BME280;3454;42.654;23.378;2023-02-16T04:10:50;95611.41;;;1.26;98.05
6833;BME280;3454;42.654;23.378;2023-02-16T04:13:15;95605.38;;;1.32;97.17
6833;BME280;3454;42.654;23.378;2023-02-16T04:15:41;95514.31;;;1.57;100.00
6833;BME280;3454;42.654;23.378;2023-02-16T04:18:06;95594.91;;;1.45;100.00
6833;BME280;3454;42.654;23.378;2023-02-16T04:20:33;95625.72;;;1.23;100.00
6833;BME280;3454;42.654;23.378;2023-02-16T04:22:59;95631.16;;;1.35;100.00
6833;BME280;3454;42.654;23.378;2023-02-16T04:25:25;95655.81;;;1.21;100.00
6833;BME280;3454;42.654;23.378;2023-02-16T04:27:58;95646.16;;;1.11;100.00
6833;BME280;3454;42.654;23.378;2023-02-16T04:30:27;95669.78;;;1.28;100.00
6833;BME280;3454;42.654;23.378;2023-02-16T04:32:53;95658.69;;;1.11;100.00
6833;BME280;3454;42.654;23.378;2023-02-16T04:35:19;95617.19;;;0.77;100.00
6833;BME280;3454;42.654;23.378;2023-02-16T04:37:45;95601.41;;;0.75;100.00
6833;BME280;3454;42.654;23.378;2023-02-16T04:40:12;95638.22;;;0.98;100.00
6833;BME280;3454;42.654;23.378;2023-02-16T04:42:42;95576.19;;;0.55;100.00
6833;BME280;3454;42.654;23.378;2023-02-16T04:45:08;95610.00;;;0.68;100.00
6833;BME280;3454;42.654;23.378;2023-02-16T04:47:34;95586.84;;;0.62;100.00
6833;BME280;3454;42.654;23.378;2023-02-16T04:49:59;95573.44;;;0.64;100.00
6833;BME280;3454;42.654;23.378;2023-02-16T04:52:25;95575.81;;;0.67;100.00
6833;BME280;3454;42.654;23.378;2023-02-16T04:54:50;95572.94;;;0.53;100.00
6833;BME280;3454;42.654;23.378;2023-02-16T04:57:17;95577.50;;;0.67;100.00
6833;BME280;3454;42.654;23.378;2023-02-16T04:59:43;95587.41;;;0.70;100.00
6833;BME280;3454;42.654;23.378;2023-02-16T05:02:09;95617.19;;;0.77;100.00
6833;BME280;3454;42.654;23.378;2023-02-16T05:04:34;95677.34;;;0.74;100.00
6833;BME280;3454;42.654;23.378;2023-02-16T05:07:00;95613.47;;;0.63;100.00
6833;BME280;3454;42.654;23.378;2023-02-16T05:09:25;95648.03;;;0.52;100.00
6833;BME280;3454;42.654;23.378;2023-02-16T05:11:51;95672.69;;;0.35;100.00
6833;BME280;3454;42.654;23.378;2023-02-16T05:14:34;95643.66;;;0.02;100.00
6833;BME280;3454;42.654;23.378;2023-02-16T05:19:44;95600.19;;;-0.51;100.00
6833;BME280;3454;42.654;23.378;2023-02-16T05:22:11;95592.97;;;-0.62;100.00
6833;BME280;3454;42.654;23.378;2023-02-16T05:24:37;95595.31;;;-0.56;100.00
6833;BME280;3454;42.654;23.378;2023-02-16T05:27:05;95600.22;;;-0.53;100.00
6833;BME280;3454;42.654;23.378;2023-02-16T05:29:31;95593.78;;;-0.61;100.00
6833;BME280;3454;42.654;23.378;2023-02-16T05:31:57;95603.28;;;-0.43;100.00
6833;BME280;3454;42.654;23.378;2023-02-16T05:34:23;95601.22;;;-0.60;100.00
6833;BME280;3454;42.654;23.378;2023-02-16T05:36:50;95584.09;;;-0.72;100.00
6833;BME280;3454;42.654;23.378;2023-02-16T05:39:15;95604.56;;;-0.59;100.00
6833;BME280;3454;42.654;23.378;2023-02-16T05:41:42;95603.63;;;-0.55;100.00
6833;BME280;3454;42.654;23.378;2023-02-16T05:44:08;95634.53;;;-0.30;100.00
6833;BME280;3454;42.654;23.378;2023-02-16T05:46:36;95608.22;;;-0.11;100.00
6833;BME280;3454;42.654;23.378;2023-02-16T05:49:03;95622.97;;;-0.04;100.00
6833;BME280;3454;42.654;23.378;2023-02-16T05:51:29;95643.66;;;0.02;100.00
6833;BME280;3454;42.654;23.378;2023-02-16T05:53:55;95631.66;;;0.13;100.00
6833;BME280;3454;42.654;23.378;2023-02-16T05:56:21;95616.78;;;0.10;100.00
6833;BME280;3454;42.654;23.378;2023-02-16T05:58:47;95628.63;;;0.31;100.00
6833;BME280;3454;42.654;23.378;2023-02-16T06:01:13;95611.50;;;0.46;100.00
6833;BME280;3454;42.654;23.378;2023-02-16T06:03:39;95627.91;;;0.55;100.00
6833;BME280;3454;42.654;23.378;2023-02-16T06:06:04;95662.72;;;0.62;100.00
6833;BME280;3454;42.654;23.378;2023-02-16T06:08:31;95631.75;;;0.65;100.00
6833;BME280;3454;42.654;23.378;2023-02-16T06:10:57;95603.78;;;0.26;100.00
6833;BME280;3454;42.654;23.378;2023-02-16T06:13:23;95614.72;;;0.50;100.00
6833;BME280;3454;42.654;23.378;2023-02-16T06:15:54;95627.78;;;0.04;100.00
6833;BME280;3454;42.654;23.378;2023-02-16T06:18:20;95621.00;;;-0.22;100.00
6833;BME280;3454;42.654;23.378;2023-02-16T06:20:45;95630.66;;;-0.10;100.00
6833;BME280;3454;42.654;23.378;2023-02-16T06:23:12;95640.28;;;0.04;100.00
6833;BME280;3454;42.654;23.378;2023-02-16T06:25:40;95638.09;;;0.21;100.00
6833;BME280;3454;42.654;23.378;2023-02-16T06:28:06;95655.72;;;0.46;100.00
6833;BME280;3454;42.654;23.378;2023-02-16T06:30:32;95670.06;;;0.67;100.00
6833;BME280;3454;42.654;23.378;2023-02-16T06:32:59;95641.53;;;0.46;100.00
6833;BME280;3454;42.654;23.378;2023-02-16T06:35:25;95692.56;;;0.95;100.00
6833;BME280;3454;42.654;23.378;2023-02-16T06:37:50;95676.03;;;0.89;100.00
6833;BME280;3454;42.654;23.378;2023-02-16T06:40:16;95704.50;;;1.13;100.00
6833;BME280;3454;42.654;23.378;2023-02-16T06:42:43;95690.47;;;1.07;100.00
6833;BME280;3454;42.654;23.378;2023-02-16T06:45:09;95727.88;;;1.39;100.00
6833;BME280;3454;42.654;23.378;2023-02-16T06:47:35;95756.38;;;1.61;100.00
6833;BME280;3454;42.654;23.378;2023-02-16T06:50:02;95743.94;;;1.58;100.00
6833;BME280;3454;42.654;23.378;2023-02-16T06:52:28;95733.91;;;1.58;100.00
6833;BME280;3454;42.654;23.378;2023-02-16T06:54:54;95732.69;;;1.70;100.00
6833;BME280;3454;42.654;23.378;2023-02-16T06:57:19;95756.34;;;1.88;100.00
6833;BME280;3454;42.654;23.378;2023-02-16T06:59:44;95765.41;;;1.90;100.00
6833;BME280;3454;42.654;23.378;2023-02-16T07:02:10;95779.91;;;2.07;100.00
6833;BME280;3454;42.654;23.378;2023-02-16T07:04:35;95780.25;;;2.21;100.00
6833;BME280;3454;42.654;23.378;2023-02-16T07:07:02;95758.94;;;2.09;100.00
6833;BME280;3454;42.654;23.378;2023-02-16T07:09:27;95718.59;;;1.67;100.00
6833;BME280;3454;42.654;23.378;2023-02-16T07:11:53;95713.81;;;1.60;100.00
6833;BME280;3454;42.654;23.378;2023-02-16T07:14:18;95719.56;;;1.63;100.00
6833;BME280;3454;42.654;23.378;2023-02-16T07:16:44;95746.81;;;1.97;100.00
6833;BME280;3454;42.654;23.378;2023-02-16T07:19:09;95782.00;;;2.19;100.00
6833;BME280;3454;42.654;23.378;2023-02-16T07:21:35;95764.91;;;2.30;100.00
6833;BME280;3454;42.654;23.378;2023-02-16T07:24:00;95738.28;;;2.26;100.00
6833;BME280;3454;42.654;23.378;2023-02-16T07:26:25;95787.16;;;2.62;100.00
6833;BME280;3454;42.654;23.378;2023-02-16T07:28:51;95779.88;;;2.54;100.00
6833;BME280;3454;42.654;23.378;2023-02-16T07:31:17;95734.03;;;2.28;100.00
6833;BME280;3454;42.654;23.378;2023-02-16T07:33:43;95753.31;;;2.49;100.00
6833;BME280;3454;42.654;23.378;2023-02-16T07:36:10;95769.78;;;2.79;100.00
6833;BME280;3454;42.654;23.378;2023-02-16T07:38:37;95787.56;;;2.96;100.00
6833;BME280;3454;42.654;23.378;2023-02-16T07:41:03;95801.50;;;2.82;100.00
6833;BME280;3454;42.654;23.378;2023-02-16T07:43:29;95777.44;;;2.76;100.00
6833;BME280;3454;42.654;23.378;2023-02-16T07:45:54;95772.50;;;2.96;100.00
6833;BME280;3454;42.654;23.378;2023-02-16T07:48:20;95790.44;;;3.30;100.00
6833;BME280;3454;42.654;23.378;2023-02-16T07:50:45;95849.91;;;3.53;100.00
6833;BME280;3454;42.654;23.378;2023-02-16T07:53:11;95839.25;;;3.47;100.00
6833;BME280;3454;42.654;23.378;2023-02-16T07:55:39;95808.13;;;3.27;100.00
6833;BME280;3454;42.654;23.378;2023-02-16T07:58:05;95793.00;;;3.51;100.00
6833;BME280;3454;42.654;23.378;2023-02-16T08:00:30;95814.09;;;3.68;100.00
6833;BME280;3454;42.654;23.378;2023-02-16T08:02:56;95871.53;;;3.99;100.00
6833;BME280;3454;42.654;23.378;2023-02-16T08:05:21;95894.88;;;4.24;100.00
6833;BME280;3454;42.654;23.378;2023-02-16T08:07:47;95909.22;;;4.42;100.00
6833;BME280;3454;42.654;23.378;2023-02-16T08:10:13;95924.56;;;4.36;100.00
6833;BME280;3454;42.654;23.378;2023-02-16T08:12:40;95941.97;;;4.62;100.00
6833;BME280;3454;42.654;23.378;2023-02-16T08:15:05;95920.28;;;4.78;100.00
6833;BME280;3454;42.654;23.378;2023-02-16T08:17:32;95971.41;;;5.00;100.00
6833;BME280;3454;42.654;23.378;2023-02-16T08:19:58;95949.53;;;5.01;100.00
6833;BME280;3454;42.654;23.378;2023-02-16T08:22:23;95988.31;;;5.37;100.00
6833;BME280;3454;42.654;23.378;2023-02-16T08:24:49;96026.38;;;5.51;100.00
6833;BME280;3454;42.654;23.378;2023-02-16T08:27:16;96010.22;;;5.55;100.00
6833;BME280;3454;42.654;23.378;2023-02-16T08:29:42;96014.66;;;5.69;100.00
6833;BME280;3454;42.654;23.378;2023-02-16T08:32:10;95997.66;;;5.54;100.00
6833;BME280;3454;42.654;23.378;2023-02-16T08:34:36;96011.59;;;5.81;100.00
6833;BME280;3454;42.654;23.378;2023-02-16T08:37:02;96021.53;;;5.85;100.00
6833;BME280;3454;42.654;23.378;2023-02-16T08:39:30;96067.47;;;6.29;99.74
6833;BME280;3454;42.654;23.378;2023-02-16T08:41:57;96045.41;;;6.33;99.83
6833;BME280;3454;42.654;23.378;2023-02-16T08:44:24;96053.91;;;6.67;99.31
6833;BME280;3454;42.654;23.378;2023-02-16T08:46:52;96063.22;;;6.84;98.19
6833;BME280;3454;42.654;23.378;2023-02-16T08:49:19;96069.56;;;7.27;98.94
6833;BME280;3454;42.654;23.378;2023-02-16T08:51:51;96106.78;;;7.57;95.87
6833;BME280;3454;42.654;23.378;2023-02-16T08:54:27;96153.28;;;7.89;89.58
6833;BME280;3454;42.654;23.378;2023-02-16T08:56:55;96103.97;;;7.96;90.56
6833;BME280;3454;42.654;23.378;2023-02-16T08:59:22;96166.34;;;8.14;75.38
6833;BME280;3454;42.654;23.378;2023-02-16T09:01:49;96162.84;;;8.34;72.00
6833;BME280;3454;42.654;23.378;2023-02-16T09:04:15;96174.44;;;8.38;70.85
6833;BME280;3454;42.654;23.378;2023-02-16T09:06:44;96154.31;;;8.51;70.85
6833;BME280;3454;42.654;23.378;2023-02-16T09:09:11;96156.78;;;8.83;69.75
6833;BME280;3454;42.654;23.378;2023-02-16T09:11:37;96194.81;;;9.30;68.70
6833;BME280;3454;42.654;23.378;2023-02-16T09:14:03;96218.53;;;9.74;67.05
6833;BME280;3454;42.654;23.378;2023-02-16T09:16:29;96235.88;;;9.82;65.87
6833;BME280;3454;42.654;23.378;2023-02-16T09:19:00;96255.63;;;9.47;64.44
6833;BME280;3454;42.654;23.378;2023-02-16T09:21:27;96189.66;;;9.16;66.65
6833;BME280;3454;42.654;23.378;2023-02-16T09:23:56;96200.91;;;9.42;65.28
6833;BME280;3454;42.654;23.378;2023-02-16T09:26:24;96210.63;;;9.65;64.85
6833;BME280;3454;42.654;23.378;2023-02-16T09:28:50;96241.31;;;10.05;63.57
6833;BME280;3454;42.654;23.378;2023-02-16T09:31:20;96280.88;;;10.53;61.92
6833;BME280;3454;42.654;23.378;2023-02-16T09:33:50;96288.78;;;10.77;61.15
6833;BME280;3454;42.654;23.378;2023-02-16T09:36:17;96284.97;;;10.98;60.96
6833;BME280;3454;42.654;23.378;2023-02-16T09:38:43;96292.56;;;11.26;60.13
6833;BME280;3454;42.654;23.378;2023-02-16T09:41:23;96345.78;;;11.57;57.86
6833;BME280;3454;42.654;23.378;2023-02-16T09:43:58;96325.25;;;11.74;58.02
6833;BME280;3454;42.654;23.378;2023-02-16T09:46:25;96360.19;;;11.99;56.09
6833;BME280;3454;42.654;23.378;2023-02-16T09:48:53;96312.56;;;11.87;57.24
6833;BME280;3454;42.654;23.378;2023-02-16T09:51:23;96313.13;;;11.23;56.85
6833;BME280;3454;42.654;23.378;2023-02-16T09:54:09;96259.09;;;10.49;58.14
6833;BME280;3454;42.654;23.378;2023-02-16T09:56:48;96248.09;;;10.63;58.33
6833;BME280;3454;42.654;23.378;2023-02-16T09:59:37;96231.31;;;11.15;58.71
6833;BME280;3454;42.654;23.378;2023-02-16T10:08:35;96357.97;;;12.34;53.88
6833;BME280;3454;42.654;23.378;2023-02-16T10:11:10;96292.78;;;12.93;53.55
6833;BME280;3454;42.654;23.378;2023-02-16T10:14:01;96311.66;;;13.03;52.67
6833;BME280;3454;42.654;23.378;2023-02-16T10:16:36;96299.31;;;13.09;52.51
6833;BME280;3454;42.654;23.378;2023-02-16T10:19:15;96300.59;;;13.40;51.94
6833;BME280;3454;42.654;23.378;2023-02-16T10:21:43;96283.13;;;13.34;51.24
6833;BME280;3454;42.654;23.378;2023-02-16T10:24:12;96295.84;;;13.59;49.65
6833;BME280;3454;42.654;23.378;2023-02-16T10:26:45;96264.47;;;13.57;50.29
6833;BME280;3454;42.654;23.378;2023-02-16T10:29:20;96293.25;;;14.06;49.12
6833;BME280;3454;42.654;23.378;2023-02-16T10:32:18;96292.19;;;14.32;48.40
6833;BME280;3454;42.654;23.378;2023-02-16T10:34:54;96263.16;;;14.45;48.90
6833;BME280;3454;42.654;23.378;2023-02-16T10:45:52;96113.31;;;14.63;53.65
6833;BME280;3454;42.654;23.378;2023-02-16T10:48:22;95780.66;;;14.31;66.84
6833;BME280;3454;42.654;23.378;2023-02-16T10:51:11;95777.44;;;15.20;70.12
6833;BME280;3454;42.654;23.378;2023-02-16T10:53:46;96176.00;;;15.33;51.55
6833;BME280;3454;42.654;23.378;2023-02-16T10:58:46;95938.06;;;14.67;59.34
6833;BME280;3454;42.654;23.378;2023-02-16T11:01:19;96033.09;;;14.08;54.72
6833;BME280;3454;42.654;23.378;2023-02-16T11:03:48;96059.38;;;14.21;53.49
6833;BME280;3454;42.654;23.378;2023-02-16T11:06:16;96110.66;;;14.53;51.69
6833;BME280;3454;42.654;23.378;2023-02-16T11:08:51;96091.78;;;14.10;51.54
6833;BME280;3454;42.654;23.378;2023-02-16T11:11:18;95942.06;;;14.06;56.93
6833;BME280;3454;42.654;23.378;2023-02-16T11:13:48;95956.66;;;13.83;56.02
6833;BME280;3454;42.654;23.378;2023-02-16T11:16:22;96006.13;;;14.15;54.32
6833;BME280;3454;42.654;23.378;2023-02-16T11:19:02;96034.88;;;14.30;53.57
6833;BME280;3454;42.654;23.378;2023-02-16T11:21:50;96101.63;;;14.38;50.85
6833;BME280;3454;42.654;23.378;2023-02-16T11:24:33;96055.75;;;13.80;51.80
6833;BME280;3454;42.654;23.378;2023-02-16T11:27:25;95992.75;;;13.68;53.52
6833;BME280;3454;42.654;23.378;2023-02-16T11:30:15;95932.72;;;13.62;55.76
6833;BME280;3454;42.654;23.378;2023-02-16T11:32:49;96029.63;;;14.09;52.52
6833;BME280;3454;42.654;23.378;2023-02-16T11:35:15;96033.91;;;14.42;52.11
6833;BME280;3454;42.654;23.378;2023-02-16T11:37:42;96091.22;;;14.17;49.82
6833;BME280;3454;42.654;23.378;2023-02-16T11:40:26;96118.66;;;13.93;48.99
6833;BME280;3454;42.654;23.378;2023-02-16T11:42:55;96071.47;;;13.97;49.98
6833;BME280;3454;42.654;23.378;2023-02-16T11:47:59;96056.56;;;14.47;50.32
6833;BME280;3454;42.654;23.378;2023-02-16T11:50:32;96109.97;;;14.62;48.99
6833;BME280;3454;42.654;23.378;2023-02-16T11:53:14;96090.69;;;14.90;49.10
6833;BME280;3454;42.654;23.378;2023-02-16T11:55:43;96085.53;;;15.01;48.43
6833;BME280;3454;42.654;23.378;2023-02-16T12:14:59;96122.44;;;16.24;45.97
6833;BME280;3454;42.654;23.378;2023-02-16T12:22:46;96115.16;;;16.59;45.20
6833;BME280;3454;42.654;23.378;2023-02-16T12:25:51;96188.84;;;16.98;42.69
6833;BME280;3454;42.654;23.378;2023-02-16T12:31:41;96181.72;;;17.30;41.88
6833;BME280;3454;42.654;23.378;2023-02-16T12:39:29;96148.88;;;17.82;41.64
6833;BME280;3454;42.654;23.378;2023-02-16T12:44:34;96173.50;;;17.94;39.43
6833;BME280;3454;42.654;23.378;2023-02-16T12:47:03;96207.66;;;17.77;38.62
6833;BME280;3454;42.654;23.378;2023-02-16T12:52:46;96154.53;;;17.28;39.41
6833;BME280;3454;42.654;23.378;2023-02-16T12:55:27;96114.34;;;17.75;40.31
6833;BME280;3454;42.654;23.378;2023-02-16T12:58:09;96208.47;;;17.87;36.83
6833;BME280;3454;42.654;23.378;2023-02-16T13:05:49;96141.00;;;17.07;37.91
6833;BME280;3454;42.654;23.378;2023-02-16T13:11:37;96161.53;;;16.57;36.58
6833;BME280;3454;42.654;23.378;2023-02-16T13:14:12;96077.19;;;16.62;38.84
6833;BME280;3454;42.654;23.378;2023-02-16T13:17:00;96029.53;;;17.08;40.40
6833;BME280;3454;42.654;23.378;2023-02-16T13:19:27;96068.22;;;17.54;38.92
6833;BME280;3454;42.654;23.378;2023-02-16T13:44:02;96070.25;;;17.41;35.83
6833;BME280;3454;42.654;23.378;2023-02-16T13:46:33;96042.66;;;17.52;36.54
6833;BME280;3454;42.654;23.378;2023-02-16T13:49:02;96102.31;;;17.75;34.81
6833;BME280;3454;42.654;23.378;2023-02-16T13:51:39;96080.88;;;17.84;35.23
6833;BME280;3454;42.654;23.378;2023-02-16T13:54:33;96064.75;;;18.01;35.86
6833;BME280;3454;42.654;23.378;2023-02-16T13:56:57;96051.81;;;17.45;35.52
6833;BME280;3454;42.654;23.378;2023-02-16T14:01:51;96037.78;;;16.83;35.58
6833;BME280;3454;42.654;23.378;2023-02-16T14:06:50;95999.88;;;17.13;36.70
6833;BME280;3454;42.654;23.378;2023-02-16T14:17:28;96024.50;;;17.16;35.64
6833;BME280;3454;42.654;23.378;2023-02-16T14:27:51;96046.41;;;17.48;34.58
6833;BME280;3454;42.654;23.378;2023-02-16T14:33:00;96021.00;;;17.55;35.27
6833;BME280;3454;42.654;23.378;2023-02-16T14:35:33;96022.50;;;17.29;34.80
6833;BME280;3454;42.654;23.378;2023-02-16T14:40:53;96003.44;;;17.03;35.53
6833;BME280;3454;42.654;23.378;2023-02-16T14:46:21;95953.75;;;16.45;36.13
6833;BME280;3454;42.654;23.378;2023-02-16T15:00:34;95853.31;;;14.60;39.29
6833;BME280;3454;42.654;23.378;2023-02-16T15:03:14;95814.63;;;14.22;40.46
6833;BME280;3454;42.654;23.378;2023-02-16T15:05:40;95813.94;;;14.20;40.75
6833;BME280;3454;42.654;23.378;2023-02-16T15:08:21;95795.63;;;14.04;41.31
6833;BME280;3454;42.654;23.378;2023-02-16T15:10:49;95785.69;;;13.90;41.50
6833;BME280;3454;42.654;23.378;2023-02-16T15:13:29;95782.00;;;13.83;41.77
6833;BME280;3454;42.654;23.378;2023-02-16T15:15:57;95777.66;;;13.63;41.75
6833;BME280;3454;42.654;23.378;2023-02-16T15:18:28;95761.69;;;13.38;42.55
6833;BME280;3454;42.654;23.378;2023-02-16T15:20:57;95743.16;;;13.03;43.42
6833;BME280;3454;42.654;23.378;2023-02-16T15:23:32;95612.25;;;13.01;49.18
6833;BME280;3454;42.654;23.378;2023-02-16T15:28:32;95726.22;;;12.91;44.42
6833;BME280;3454;42.654;23.378;2023-02-16T15:31:05;95731.00;;;12.74;44.52
6833;BME280;3454;42.654;23.378;2023-02-16T15:33:40;95704.09;;;12.70;45.14
6833;BME280;3454;42.654;23.378;2023-02-16T15:36:09;95651.34;;;12.26;47.15
6833;BME280;3454;42.654;23.378;2023-02-16T15:38:40;95641.81;;;12.17;47.69
6833;BME280;3454;42.654;23.378;2023-02-16T15:41:10;95622.16;;;12.08;48.83
6833;BME280;3454;42.654;23.378;2023-02-16T15:43:46;95598.72;;;11.92;49.37
6833;BME280;3454;42.654;23.378;2023-02-16T15:48:48;95574.66;;;11.50;50.78
6833;BME280;3454;42.654;23.378;2023-02-16T15:51:23;95555.06;;;11.28;51.73
6833;BME280;3454;42.654;23.378;2023-02-16T15:54:02;95548.31;;;11.27;52.37
6833;BME280;3454;42.654;23.378;2023-02-16T15:56:39;95558.31;;;11.30;51.82
6833;BME280;3454;42.654;23.378;2023-02-16T16:02:01;95547.72;;;11.13;52.69
6833;BME280;3454;42.654;23.378;2023-02-16T16:04:29;95530.44;;;10.94;53.65
6833;BME280;3454;42.654;23.378;2023-02-16T16:06:55;95525.53;;;10.80;53.60
6833;BME280;3454;42.654;23.378;2023-02-16T16:09:27;95521.31;;;10.68;54.15
6833;BME280;3454;42.654;23.378;2023-02-16T16:11:55;95519.97;;;10.51;54.25
6833;BME280;3454;42.654;23.378;2023-02-16T16:14:22;95518.66;;;10.46;54.54
6833;BME280;3454;42.654;23.378;2023-02-16T16:16:48;95510.09;;;10.47;54.52
6833;BME280;3454;42.654;23.378;2023-02-16T16:19:20;95522.47;;;10.40;54.74
6833;BME280;3454;42.654;23.378;2023-02-16T16:21:51;95511.66;;;10.37;54.99
6833;BME280;3454;42.654;23.378;2023-02-16T16:24:32;95488.91;;;10.11;55.97
6833;BME280;3454;42.654;23.378;2023-02-16T16:27:02;95505.13;;;10.09;55.84